createdAt,value
2017-12-15T00:02:18.339Z,12.80
2017-12-15T00:04:45.961Z,11.38
2017-12-15T00:07:13.592Z,12.13
2017-12-15T00:09:41.197Z,10.52
2017-12-15T00:12:09.643Z,11.55
2017-12-15T00:14:37.243Z,11.93
2017-12-15T00:17:05.743Z,13.32
2017-12-15T00:19:33.344Z,12.63
2017-12-15T00:22:01.037Z,13.50
2017-12-15T00:24:28.642Z,13.10
2017-12-15T00:26:56.293Z,13.88
2017-12-15T00:29:23.925Z,11.85
2017-12-15T00:31:52.491Z,14.23
2017-12-15T00:34:21.069Z,13.65
2017-12-15T00:36:48.693Z,11.70
2017-12-15T00:39:16.303Z,13.02
2017-12-15T00:41:43.899Z,13.40
2017-12-15T00:44:11.580Z,14.18
2017-12-15T00:46:39.277Z,14.20
2017-12-15T00:49:06.943Z,17.37
2017-12-15T00:51:34.582Z,16.40
2017-12-15T00:54:02.238Z,15.07
2017-12-15T00:56:29.945Z,15.50
2017-12-15T00:58:58.504Z,18.85
2017-12-15T01:01:26.184Z,15.73
2017-12-15T01:03:53.814Z,14.77
2017-12-15T01:06:21.497Z,15.15
2017-12-15T01:08:49.899Z,17.12
2017-12-15T01:11:17.544Z,16.17
2017-12-15T01:13:45.206Z,14.98
2017-12-15T01:16:12.954Z,16.27
2017-12-15T01:18:40.634Z,15.77
2017-12-15T01:21:09.103Z,16.15
2017-12-15T01:23:36.748Z,15.45
2017-12-15T01:26:04.409Z,13.55
2017-12-15T01:28:32.045Z,15.02
2017-12-15T01:30:59.724Z,13.02
2017-12-15T01:33:27.397Z,15.35
2017-12-15T01:35:55.015Z,15.15
2017-12-15T01:38:22.654Z,13.68
2017-12-15T01:40:51.035Z,14.35
2017-12-15T01:43:19.470Z,13.57
2017-12-15T01:45:47.108Z,13.20
2017-12-15T01:48:14.814Z,14.40
2017-12-15T01:50:42.450Z,15.93
2017-12-15T01:53:10.112Z,13.30
2017-12-15T01:55:37.739Z,13.52
2017-12-15T01:58:05.402Z,13.38
2017-12-15T02:00:33.065Z,14.65
2017-12-15T02:03:00.698Z,13.00
2017-12-15T02:05:28.370Z,14.43
2017-12-15T02:07:56.786Z,14.00
2017-12-15T02:10:24.434Z,15.30
2017-12-15T02:12:52.086Z,14.98
2017-12-15T02:15:19.798Z,14.98
2017-12-15T02:17:47.474Z,13.52
2017-12-15T02:20:15.122Z,11.25
2017-12-15T02:22:43.535Z,14.02
2017-12-15T02:25:11.171Z,15.60
2017-12-15T02:27:38.897Z,11.52
2017-12-15T02:30:06.947Z,12.37
2017-12-15T02:32:34.552Z,10.38
2017-12-15T02:35:02.171Z,11.43
2017-12-15T02:37:29.829Z,12.63
2017-12-15T02:39:57.459Z,12.30
2017-12-15T02:42:25.914Z,10.85
2017-12-15T02:44:53.516Z,13.15
2017-12-15T02:47:21.190Z,12.15
2017-12-15T02:49:48.836Z,11.90
2017-12-15T02:52:16.513Z,13.62
2017-12-15T02:54:44.199Z,13.40
2017-12-15T02:57:11.844Z,12.70
2017-12-15T02:59:39.481Z,15.27
2017-12-15T03:02:07.223Z,13.45
2017-12-15T03:04:34.850Z,13.07
2017-12-15T03:07:02.922Z,9.50
2017-12-15T03:09:30.550Z,8.68
2017-12-15T03:11:58.990Z,10.45
2017-12-15T03:14:27.199Z,10.13
2017-12-15T03:16:54.787Z,9.73
2017-12-15T03:19:22.487Z,11.18
2017-12-15T03:21:50.189Z,11.20
2017-12-15T03:24:17.879Z,11.82
2017-12-15T03:26:45.706Z,11.40
2017-12-15T03:29:13.314Z,10.43
2017-12-15T03:31:41.714Z,11.77
2017-12-15T03:34:09.314Z,10.55
2017-12-15T03:36:37.118Z,10.63
2017-12-15T03:39:05.641Z,11.23
2017-12-15T03:41:33.419Z,11.25
2017-12-15T03:44:01.409Z,11.45
2017-12-15T03:46:28.982Z,11.70
2017-12-15T03:51:31.232Z,15.05
2017-12-15T03:53:58.925Z,15.30
2017-12-15T03:56:26.489Z,14.20
2017-12-15T03:58:54.115Z,15.95
2017-12-15T04:01:22.564Z,14.45
2017-12-15T04:03:50.248Z,13.70
2017-12-15T04:06:17.912Z,15.30
2017-12-15T04:08:45.564Z,15.73
2017-12-15T04:11:13.187Z,16.15
2017-12-15T04:13:41.595Z,15.90
2017-12-15T04:16:09.247Z,15.60
2017-12-15T04:18:37.125Z,15.75
2017-12-15T04:21:04.755Z,16.27
2017-12-15T04:23:33.183Z,15.55
2017-12-15T04:26:00.819Z,14.68
2017-12-15T04:28:28.517Z,16.25
2017-12-15T04:30:56.228Z,16.10
2017-12-15T04:33:23.847Z,16.65
2017-12-15T04:35:51.472Z,17.33
2017-12-15T04:38:19.124Z,17.20
2017-12-15T04:40:46.785Z,16.73
2017-12-15T04:43:14.484Z,16.15
2017-12-15T04:45:42.292Z,17.52
2017-12-15T04:48:09.929Z,19.55
2017-12-15T04:50:37.615Z,15.32
2017-12-15T04:53:05.990Z,16.10
2017-12-15T04:55:34.454Z,17.17
2017-12-15T04:58:02.090Z,20.70
2017-12-15T05:00:29.816Z,19.23
2017-12-15T05:02:57.490Z,19.00
2017-12-15T05:05:25.155Z,18.77
2017-12-15T05:07:52.780Z,17.35
2017-12-15T05:10:20.389Z,16.40
2017-12-15T05:12:48.074Z,17.85
2017-12-15T05:15:15.779Z,14.90
2017-12-15T05:17:43.526Z,16.95
2017-12-15T05:20:12.030Z,16.65
2017-12-15T05:22:39.719Z,18.12
2017-12-15T05:25:07.430Z,18.08
2017-12-15T05:27:35.820Z,18.05
2017-12-15T05:30:04.201Z,17.65
2017-12-15T05:32:31.868Z,18.37
2017-12-15T05:34:59.510Z,16.70
2017-12-15T05:37:27.170Z,18.45
2017-12-15T05:39:54.837Z,15.88
2017-12-15T05:42:22.484Z,16.67
2017-12-15T05:44:50.604Z,18.55
2017-12-15T05:47:18.443Z,21.10
2017-12-15T05:49:46.156Z,19.58
2017-12-15T05:52:14.560Z,22.33
2017-12-15T05:54:42.295Z,18.12
2017-12-15T05:57:09.951Z,23.27
2017-12-15T05:59:37.603Z,20.45
2017-12-15T06:02:05.384Z,22.67
2017-12-15T06:04:33.064Z,21.20
2017-12-15T06:07:00.697Z,21.37
2017-12-15T06:09:28.328Z,23.00
2017-12-15T06:11:55.936Z,26.67
2017-12-15T06:14:23.643Z,23.75
2017-12-15T06:16:51.344Z,25.98
2017-12-15T06:19:19.358Z,24.00
2017-12-15T06:21:47.848Z,26.65
2017-12-15T06:24:15.449Z,22.13
2017-12-15T06:26:43.190Z,22.85
2017-12-15T06:29:10.863Z,22.35
2017-12-15T06:31:38.504Z,22.87
2017-12-15T06:34:06.980Z,25.52
2017-12-15T06:36:35.356Z,23.40
2017-12-15T06:39:03.588Z,21.62
2017-12-15T06:41:31.229Z,24.23
2017-12-15T06:43:58.898Z,25.75
2017-12-15T06:46:26.552Z,22.37
2017-12-15T06:48:54.272Z,22.13
2017-12-15T06:51:21.922Z,23.20
2017-12-15T06:53:49.828Z,21.27
2017-12-15T06:56:17.520Z,20.45
2017-12-15T06:58:45.129Z,20.48
2017-12-15T07:01:13.546Z,20.85
2017-12-15T07:03:41.156Z,18.83
2017-12-15T07:06:09.580Z,18.77
2017-12-15T07:08:37.181Z,22.05
2017-12-15T07:11:04.887Z,20.20
2017-12-15T07:13:32.462Z,18.42
2017-12-15T07:16:00.109Z,21.92
2017-12-15T07:18:27.869Z,22.52
2017-12-15T07:20:55.541Z,20.62
2017-12-15T07:23:23.184Z,24.45
2017-12-15T07:25:50.771Z,27.92
2017-12-15T07:28:18.390Z,25.20
2017-12-15T07:30:46.096Z,27.30
2017-12-15T07:33:13.740Z,26.55
2017-12-15T07:35:41.402Z,23.23
2017-12-15T07:38:09.214Z,21.52
2017-12-15T07:40:36.847Z,25.55
2017-12-15T07:43:05.222Z,25.12
2017-12-15T07:45:32.838Z,22.08
2017-12-15T07:48:01.242Z,23.48
2017-12-15T07:50:28.945Z,24.02
2017-12-15T07:52:56.648Z,21.85
2017-12-15T07:55:24.306Z,22.83
2017-12-15T07:57:52.196Z,21.87
2017-12-15T08:00:19.923Z,22.67
2017-12-15T08:02:47.551Z,20.88
2017-12-15T08:05:15.122Z,21.12
2017-12-15T08:07:44.004Z,21.90
2017-12-15T08:10:12.462Z,20.92
2017-12-15T08:12:40.089Z,20.52
2017-12-15T08:15:08.532Z,21.27
2017-12-15T08:17:36.138Z,20.77
2017-12-15T08:20:03.894Z,22.62
2017-12-15T08:22:32.294Z,20.12
2017-12-15T08:24:59.891Z,21.87
2017-12-15T08:27:27.525Z,20.62
2017-12-15T08:29:55.143Z,21.70
2017-12-15T08:32:23.627Z,20.05
2017-12-15T08:34:51.218Z,21.48
2017-12-15T08:37:19.541Z,20.80
2017-12-15T08:39:47.899Z,21.02
2017-12-15T08:42:15.590Z,19.90
2017-12-15T08:44:43.230Z,19.60
2017-12-15T08:47:10.831Z,19.85
2017-12-15T08:49:39.245Z,20.52
2017-12-15T08:52:07.369Z,18.95
2017-12-15T08:54:35.780Z,20.37
2017-12-15T08:57:03.437Z,19.33
2017-12-15T08:59:31.835Z,16.50
2017-12-15T09:01:59.434Z,18.92
2017-12-15T09:04:27.142Z,18.80
2017-12-15T09:06:54.779Z,18.52
2017-12-15T09:09:22.440Z,18.20
2017-12-15T09:11:50.178Z,18.15
2017-12-15T09:14:17.814Z,19.27
2017-12-15T09:16:45.432Z,18.80
2017-12-15T09:19:13.827Z,18.83
2017-12-15T09:21:42.074Z,20.35
2017-12-15T09:24:09.732Z,22.23
2017-12-15T09:26:37.317Z,21.00
2017-12-15T09:29:04.942Z,19.15
2017-12-15T09:31:32.552Z,16.62
2017-12-15T09:34:00.173Z,20.05
2017-12-15T09:36:27.776Z,19.37
2017-12-15T09:38:55.434Z,18.87
2017-12-15T09:41:23.065Z,17.20
2017-12-15T09:43:51.534Z,17.48
2017-12-15T09:46:19.185Z,16.48
2017-12-15T09:48:46.874Z,16.62
2017-12-15T09:51:15.249Z,15.35
2017-12-15T09:53:42.949Z,17.70
2017-12-15T09:56:10.595Z,15.80
2017-12-15T09:58:38.234Z,11.70
2017-12-15T10:01:05.887Z,13.55
2017-12-15T10:03:33.507Z,14.13
2017-12-15T10:06:01.934Z,14.13
2017-12-15T10:08:29.587Z,12.85
2017-12-15T10:10:57.405Z,13.00
2017-12-15T10:13:25.002Z,11.60
2017-12-15T10:15:52.698Z,13.05
2017-12-15T10:18:21.063Z,12.88
2017-12-15T10:20:48.682Z,14.15
2017-12-15T10:23:16.293Z,14.70
2017-12-15T10:25:43.959Z,13.10
2017-12-15T10:28:11.748Z,12.07
2017-12-15T10:30:39.551Z,13.02
2017-12-15T10:33:07.219Z,12.43
2017-12-15T10:35:34.884Z,11.70
2017-12-15T10:38:02.546Z,12.37
2017-12-15T10:40:30.536Z,10.98
2017-12-15T10:42:58.439Z,11.35
2017-12-15T10:45:26.194Z,11.73
2017-12-15T10:47:53.831Z,10.05
2017-12-15T10:50:22.333Z,11.85
2017-12-15T10:52:50.755Z,11.32
2017-12-15T10:55:18.388Z,12.02
2017-12-15T10:57:46.143Z,10.50
2017-12-15T11:00:13.811Z,11.98
2017-12-15T11:02:41.402Z,11.12
2017-12-15T11:05:09.037Z,12.05
2017-12-15T11:07:36.690Z,11.40
2017-12-15T11:10:04.333Z,10.02
2017-12-15T11:12:31.988Z,11.40
2017-12-15T11:14:59.590Z,11.32
2017-12-15T11:17:27.252Z,12.02
2017-12-15T11:19:54.958Z,11.55
2017-12-15T11:22:22.586Z,10.73
2017-12-15T11:24:50.742Z,9.52
2017-12-15T11:27:19.022Z,8.35
2017-12-15T11:29:46.915Z,10.55
2017-12-15T11:32:14.782Z,12.02
2017-12-15T11:34:43.867Z,12.00
2017-12-15T11:37:11.526Z,12.07
2017-12-15T11:39:39.128Z,11.00
2017-12-15T11:42:07.567Z,12.35
2017-12-15T11:44:35.246Z,11.40
2017-12-15T11:47:02.914Z,10.77
2017-12-15T11:49:30.615Z,11.50
2017-12-15T11:51:59.141Z,8.80
2017-12-15T11:54:26.831Z,10.85
2017-12-15T11:56:54.518Z,7.85
2017-12-15T11:59:22.887Z,6.97
2017-12-15T12:01:50.572Z,5.97
2017-12-15T12:04:18.366Z,5.75
2017-12-15T12:06:46.011Z,5.57
2017-12-15T12:09:13.623Z,4.90
2017-12-15T12:11:41.245Z,4.40
2017-12-15T12:14:08.863Z,4.55
2017-12-15T12:16:37.259Z,4.40
2017-12-15T12:19:04.968Z,5.37
2017-12-15T12:21:32.678Z,5.50
2017-12-15T12:24:00.292Z,4.87
2017-12-15T12:26:27.978Z,5.72
2017-12-15T12:28:55.628Z,5.35
2017-12-15T12:31:23.285Z,5.28
2017-12-15T12:33:50.834Z,5.60
2017-12-15T12:36:18.417Z,4.82
2017-12-15T12:38:46.126Z,4.45
2017-12-15T12:41:13.686Z,5.87
2017-12-15T12:43:41.354Z,6.10
2017-12-15T12:46:08.931Z,4.45
2017-12-15T12:48:36.567Z,7.47
2017-12-15T12:51:04.139Z,5.45
2017-12-15T12:53:31.751Z,5.57
2017-12-15T12:56:00.340Z,4.87
2017-12-15T12:58:27.933Z,5.22
2017-12-15T13:00:55.514Z,4.10
2017-12-15T13:03:23.086Z,4.47
2017-12-15T13:05:50.684Z,4.80
2017-12-15T13:08:19.053Z,4.95
2017-12-15T13:10:46.646Z,5.25
2017-12-15T13:13:14.251Z,5.20
2017-12-15T13:15:41.881Z,5.15
2017-12-15T13:18:09.469Z,4.15
2017-12-15T13:20:37.082Z,4.43
2017-12-15T13:23:04.743Z,4.07
2017-12-15T13:25:32.336Z,4.37
2017-12-15T13:27:59.927Z,5.35
2017-12-15T13:30:27.842Z,4.65
2017-12-15T13:32:55.521Z,5.25
2017-12-15T13:35:24.130Z,5.50
2017-12-15T13:37:51.803Z,5.65
2017-12-15T13:40:20.109Z,3.62
2017-12-15T13:42:47.744Z,4.70
2017-12-15T13:45:15.310Z,4.90
2017-12-15T13:47:42.931Z,5.87
2017-12-15T13:50:10.490Z,5.35
2017-12-15T13:52:39.088Z,6.60
2017-12-15T13:55:06.665Z,5.07
2017-12-15T13:57:34.363Z,3.47
2017-12-15T14:00:01.969Z,4.95
2017-12-15T14:02:29.571Z,4.25
2017-12-15T14:04:57.296Z,4.70
2017-12-15T14:07:25.177Z,5.57
2017-12-15T14:09:52.789Z,5.15
2017-12-15T14:12:20.431Z,4.15
2017-12-15T14:14:48.231Z,5.10
2017-12-15T14:17:15.802Z,4.55
2017-12-15T14:19:43.406Z,4.20
2017-12-15T14:22:11.010Z,4.85
2017-12-15T14:24:38.583Z,5.68
2017-12-15T14:27:06.352Z,6.18
2017-12-15T14:29:34.071Z,5.20
2017-12-15T14:32:01.703Z,5.60
2017-12-15T14:34:29.285Z,7.57
2017-12-15T14:36:56.973Z,4.37
2017-12-15T14:39:24.679Z,5.35
2017-12-15T14:41:53.971Z,6.80
2017-12-15T14:44:21.546Z,6.22
2017-12-15T14:46:49.114Z,5.60
2017-12-15T14:49:17.548Z,5.97
2017-12-15T14:51:45.233Z,5.37
2017-12-15T14:54:13.299Z,6.85
2017-12-15T14:56:40.952Z,7.03
2017-12-15T14:59:09.658Z,5.97
2017-12-15T15:01:37.271Z,5.62
2017-12-15T15:04:05.354Z,6.07
2017-12-15T15:06:33.021Z,7.12
2017-12-15T15:09:00.653Z,7.55
2017-12-15T15:11:28.241Z,6.05
2017-12-15T15:13:55.803Z,5.65
2017-12-15T15:16:23.415Z,6.25
2017-12-15T15:18:51.072Z,7.62
2017-12-15T15:21:19.585Z,8.30
2017-12-15T15:23:47.184Z,6.57
2017-12-15T15:26:14.881Z,6.87
2017-12-15T15:28:42.661Z,8.82
2017-12-15T15:31:10.245Z,7.53
2017-12-15T15:33:38.030Z,9.70
2017-12-15T15:36:05.632Z,9.75
2017-12-15T15:38:34.096Z,7.70
2017-12-15T15:41:01.704Z,7.50
2017-12-15T15:43:29.392Z,8.65
2017-12-15T15:45:57.010Z,6.45
2017-12-15T15:48:24.847Z,8.15
2017-12-15T15:50:52.431Z,9.43
2017-12-15T15:53:20.865Z,7.62
2017-12-15T15:55:48.506Z,7.90
2017-12-15T15:58:16.202Z,7.70
2017-12-15T16:00:43.800Z,7.85
2017-12-15T16:03:11.533Z,9.80
2017-12-15T16:05:39.126Z,9.40
2017-12-15T16:08:06.802Z,10.70
2017-12-15T16:10:34.487Z,10.45
2017-12-15T16:13:02.199Z,14.15
2017-12-15T16:15:29.872Z,15.85
2017-12-15T16:17:57.534Z,14.48
2017-12-15T16:20:25.921Z,12.57
2017-12-15T16:22:54.377Z,10.93
2017-12-15T16:25:21.986Z,9.52
2017-12-15T16:27:49.957Z,12.60
2017-12-15T16:30:17.723Z,11.48
2017-12-15T16:32:45.332Z,12.90
2017-12-15T16:35:12.994Z,11.77
2017-12-15T16:37:41.479Z,12.75
2017-12-15T16:40:10.025Z,11.15
2017-12-15T16:42:37.742Z,11.95
2017-12-15T16:45:05.413Z,12.07
2017-12-15T16:47:33.022Z,12.68
2017-12-15T16:50:01.210Z,10.98
2017-12-15T16:52:29.758Z,10.18
2017-12-15T16:54:57.379Z,10.73
2017-12-15T16:57:25.021Z,10.07
2017-12-15T16:59:52.631Z,12.13
2017-12-15T17:02:20.270Z,11.68
2017-12-15T17:04:47.962Z,10.00
2017-12-15T17:07:15.550Z,11.32
2017-12-15T17:09:43.266Z,9.55
2017-12-15T17:12:11.148Z,10.82
2017-12-15T17:14:38.861Z,11.10
2017-12-15T17:17:07.290Z,11.50
2017-12-15T17:19:35.649Z,11.50
2017-12-15T17:22:03.343Z,11.18
2017-12-15T17:24:31.730Z,9.85
2017-12-15T17:27:00.388Z,11.23
2017-12-15T17:29:28.251Z,11.15
2017-12-15T17:31:55.885Z,9.00
2017-12-15T17:34:23.501Z,10.90
2017-12-15T17:36:51.152Z,10.00
2017-12-15T17:39:19.502Z,9.60
2017-12-15T17:41:47.138Z,11.20
2017-12-15T17:44:14.985Z,11.50
2017-12-15T17:46:42.666Z,9.30
2017-12-15T17:49:10.281Z,10.90
2017-12-15T17:51:38.707Z,11.88
2017-12-15T17:54:06.342Z,10.45
2017-12-15T17:56:34.025Z,11.20
2017-12-15T17:59:01.938Z,11.12
2017-12-15T18:01:29.590Z,22.30
2017-12-15T18:03:57.279Z,15.80
2017-12-15T18:06:24.893Z,12.63
2017-12-15T18:08:52.551Z,14.20
2017-12-15T18:11:20.226Z,14.85
2017-12-15T18:13:47.911Z,16.33
2017-12-15T18:16:15.545Z,16.65
2017-12-15T18:18:43.288Z,15.45
2017-12-15T18:21:10.910Z,12.93
2017-12-15T18:23:38.539Z,11.55
2017-12-15T18:26:06.349Z,10.70
2017-12-15T18:28:33.947Z,10.30
2017-12-15T18:31:01.600Z,9.90
2017-12-15T18:33:29.242Z,13.32
2017-12-15T18:35:57.726Z,18.05
2017-12-15T18:38:25.372Z,14.15
2017-12-15T18:40:53.133Z,16.05
2017-12-15T18:43:20.904Z,13.43
2017-12-15T18:45:48.683Z,16.33
2017-12-15T18:48:16.410Z,18.65
2017-12-15T18:50:44.003Z,21.40
2017-12-15T18:53:11.677Z,18.20
2017-12-15T18:55:39.293Z,18.77
2017-12-15T18:58:06.922Z,19.55
2017-12-15T19:00:34.508Z,18.20
2017-12-15T19:03:02.174Z,16.73
2017-12-15T19:05:29.798Z,17.30
2017-12-15T19:07:57.384Z,13.30
2017-12-15T19:10:25.053Z,13.85
2017-12-15T19:12:52.672Z,15.63
2017-12-15T19:15:20.311Z,15.60
2017-12-15T19:17:47.882Z,16.75
2017-12-15T19:20:15.533Z,15.68
2017-12-15T19:22:43.930Z,14.18
2017-12-15T19:25:12.480Z,14.20
2017-12-15T19:27:40.162Z,11.65
2017-12-15T19:30:08.065Z,14.93
2017-12-15T19:32:35.744Z,13.62
2017-12-15T19:35:03.419Z,12.60
2017-12-15T19:37:31.050Z,14.82
2017-12-15T19:39:58.740Z,14.02
2017-12-15T19:42:26.377Z,16.00
2017-12-15T19:44:54.047Z,12.15
2017-12-15T19:47:22.771Z,13.90
2017-12-15T19:49:50.357Z,15.20
2017-12-15T19:52:18.049Z,14.23
2017-12-15T19:54:45.721Z,15.60
2017-12-15T19:57:14.059Z,12.88
2017-12-15T19:59:41.699Z,11.95
2017-12-15T20:02:09.349Z,27.75
2017-12-15T20:04:37.053Z,14.40
2017-12-15T20:07:04.707Z,13.70
2017-12-15T20:09:36.159Z,23.90
2017-12-15T20:12:03.848Z,18.65
2017-12-15T20:14:31.653Z,15.13
2017-12-15T20:17:00.120Z,15.30
2017-12-15T20:19:28.706Z,16.20
2017-12-15T20:21:56.410Z,20.98
2017-12-15T20:24:24.069Z,20.02
2017-12-15T20:26:51.666Z,15.52
2017-12-15T20:29:20.217Z,14.27
2017-12-15T20:31:47.802Z,14.93
2017-12-15T20:34:15.409Z,17.75
2017-12-15T20:36:43.150Z,21.15
2017-12-15T20:39:10.774Z,25.75
2017-12-15T20:41:38.448Z,24.92
2017-12-15T20:44:06.104Z,27.77
2017-12-15T20:46:33.711Z,23.90
2017-12-15T20:49:01.349Z,28.00
2017-12-15T20:51:29.103Z,24.15
2017-12-15T20:53:56.809Z,23.00
2017-12-15T20:56:25.170Z,22.48
2017-12-15T20:58:52.780Z,27.15
2017-12-15T21:01:20.470Z,23.40
2017-12-15T21:03:48.133Z,19.95
2017-12-15T21:06:15.858Z,20.75
2017-12-15T21:08:43.571Z,22.08
2017-12-15T21:11:11.204Z,21.77
2017-12-15T21:13:39.015Z,21.25
2017-12-15T21:16:06.656Z,19.90
2017-12-15T21:18:35.068Z,21.60
2017-12-15T21:21:03.616Z,18.85
2017-12-15T21:23:31.355Z,20.00
2017-12-15T21:25:59.038Z,21.62
2017-12-15T21:28:26.720Z,18.08
2017-12-15T21:30:54.348Z,24.40
2017-12-15T21:33:21.958Z,21.17
2017-12-15T21:35:49.579Z,20.42
2017-12-15T21:38:17.426Z,21.05
2017-12-15T21:40:45.050Z,21.60
2017-12-15T21:43:12.690Z,21.10
2017-12-15T21:45:55.409Z,22.65
2017-12-15T21:48:24.493Z,22.08
2017-12-15T21:50:59.537Z,19.42
2017-12-15T21:53:27.196Z,21.08
2017-12-15T21:55:54.927Z,20.88
2017-12-15T21:58:22.512Z,20.67
2017-12-15T22:00:50.149Z,21.50
2017-12-15T22:03:17.766Z,20.25
2017-12-15T22:05:45.475Z,19.70
2017-12-15T22:08:13.096Z,21.60
2017-12-15T22:10:40.725Z,21.00
2017-12-15T22:13:08.351Z,20.17
2017-12-15T22:15:35.966Z,22.33
2017-12-15T22:18:03.595Z,19.77
2017-12-15T22:20:32.048Z,22.52
2017-12-15T22:22:59.676Z,24.80
2017-12-15T22:25:27.675Z,24.00
2017-12-15T22:27:55.299Z,21.90
2017-12-15T22:30:22.900Z,22.17
2017-12-15T22:32:50.557Z,20.67
2017-12-15T22:35:18.125Z,24.45
2017-12-15T22:37:45.800Z,22.62
2017-12-15T22:40:13.393Z,23.73
2017-12-15T22:42:41.018Z,23.92
2017-12-15T22:45:08.634Z,25.92
2017-12-15T22:47:36.327Z,21.02
2017-12-15T22:50:04.441Z,22.73
2017-12-15T22:52:32.094Z,24.42
2017-12-15T22:55:00.781Z,25.20
2017-12-15T22:57:29.184Z,25.10
2017-12-15T22:59:56.840Z,24.58
2017-12-15T23:02:24.663Z,27.05
2017-12-15T23:04:52.230Z,25.10
2017-12-15T23:07:19.845Z,23.90
2017-12-15T23:09:47.527Z,25.73
2017-12-15T23:12:15.367Z,28.12
2017-12-15T23:14:43.050Z,26.87
2017-12-15T23:17:10.643Z,29.35
2017-12-15T23:19:38.443Z,26.50
2017-12-15T23:22:06.200Z,26.85
2017-12-15T23:24:33.831Z,27.23
2017-12-15T23:27:01.404Z,26.10
2017-12-15T23:29:30.447Z,26.83
2017-12-15T23:31:58.130Z,24.87
2017-12-15T23:34:25.805Z,28.50
2017-12-15T23:36:53.472Z,29.55
2017-12-15T23:39:21.240Z,30.67
2017-12-15T23:41:49.038Z,29.05
2017-12-15T23:44:16.646Z,28.05
2017-12-15T23:46:45.010Z,26.27
2017-12-15T23:49:12.598Z,24.35
2017-12-15T23:51:41.003Z,25.62
2017-12-15T23:54:08.669Z,27.92
2017-12-15T23:56:48.134Z,27.20
2017-12-15T23:59:15.790Z,26.08
